createdAt,value
2023-04-07T00:00:23.677Z,22.03
2023-04-07T00:02:50.636Z,23.30
2023-04-07T00:05:17.181Z,20.30
2023-04-07T00:07:55.087Z,20.83
2023-04-07T00:10:23.536Z,20.27
2023-04-07T00:12:49.913Z,20.40
2023-04-07T00:15:16.495Z,20.40
2023-04-07T00:17:42.886Z,25.13
2023-04-07T00:20:09.561Z,20.53
2023-04-07T00:22:35.932Z,21.20
2023-04-07T00:25:02.283Z,19.57
2023-04-07T00:27:28.648Z,21.60
2023-04-07T00:29:55.390Z,22.70
2023-04-07T00:32:22.616Z,21.63
2023-04-07T00:34:49.057Z,24.10
2023-04-07T00:37:15.974Z,21.93
2023-04-07T00:39:42.302Z,25.83
2023-04-07T00:42:08.644Z,27.23
2023-04-07T00:44:35.204Z,24.30
2023-04-07T00:47:01.707Z,22.50
2023-04-07T00:49:28.487Z,23.27
2023-04-07T00:51:56.030Z,25.30
2023-04-07T00:54:23.907Z,28.53
2023-04-07T00:56:50.921Z,29.53
2023-04-07T00:59:17.516Z,26.33
2023-04-07T01:02:05.690Z,25.23
2023-04-07T01:04:44.212Z,29.40
2023-04-07T01:07:48.292Z,24.80
2023-04-07T01:10:25.225Z,30.90
2023-04-07T01:13:05.667Z,27.03
2023-04-07T01:15:34.879Z,32.17
2023-04-07T01:18:16.675Z,28.03
2023-04-07T01:20:48.323Z,29.10
2023-04-07T01:23:27.062Z,27.37
2023-04-07T01:26:18.425Z,31.50
2023-04-07T01:29:08.090Z,28.60
2023-04-07T01:31:37.245Z,28.33
2023-04-07T01:34:04.090Z,27.53
2023-04-07T01:36:32.093Z,25.93
2023-04-07T01:38:59.881Z,27.37
2023-04-07T01:41:26.943Z,23.40
2023-04-07T01:43:55.434Z,30.47
2023-04-07T01:46:23.804Z,24.13
2023-04-07T01:48:51.457Z,30.03
2023-04-07T01:51:20.518Z,22.13
2023-04-07T01:53:48.480Z,24.80
2023-04-07T01:56:15.714Z,23.70
2023-04-07T01:58:44.217Z,30.27
2023-04-07T02:01:15.229Z,29.67
2023-04-07T02:04:07.768Z,35.10
2023-04-07T02:06:48.973Z,33.37
2023-04-07T02:09:20.246Z,37.90
2023-04-07T02:11:46.725Z,34.97
2023-04-07T02:14:14.588Z,34.30
2023-04-07T02:16:55.815Z,29.70
2023-04-07T02:19:22.581Z,33.13
2023-04-07T02:21:51.433Z,32.30
2023-04-07T02:24:21.859Z,29.60
2023-04-07T02:26:48.584Z,32.43
2023-04-07T02:29:15.375Z,34.77
2023-04-07T02:31:43.334Z,36.33
2023-04-07T02:34:09.788Z,34.33
2023-04-07T02:36:36.284Z,37.13
2023-04-07T02:39:03.374Z,39.93
2023-04-07T02:41:29.771Z,43.93
2023-04-07T02:43:56.393Z,47.17
2023-04-07T02:46:23.042Z,54.27
2023-04-07T02:48:51.493Z,64.63
2023-04-07T02:51:17.822Z,60.60
2023-04-07T02:53:44.191Z,57.30
2023-04-07T02:56:11.338Z,56.27
2023-04-07T02:58:37.733Z,61.53
2023-04-07T03:01:04.873Z,56.47
2023-04-07T03:03:33.570Z,63.07
2023-04-07T03:06:20.354Z,65.80
2023-04-07T03:09:07.039Z,62.33
2023-04-07T03:11:33.452Z,58.87
2023-04-07T03:14:00.563Z,57.37
2023-04-07T03:16:28.450Z,61.37
2023-04-07T03:19:02.751Z,58.90
2023-04-07T03:21:32.518Z,58.30
2023-04-07T03:23:58.888Z,57.73
2023-04-07T03:26:25.301Z,65.63
2023-04-07T03:28:51.842Z,61.23
2023-04-07T03:31:19.172Z,54.57
2023-04-07T03:33:50.225Z,58.20
2023-04-07T03:36:18.440Z,58.17
2023-04-07T03:38:47.601Z,60.73
2023-04-07T03:41:16.356Z,63.23
2023-04-07T03:43:42.694Z,55.80
2023-04-07T03:46:10.822Z,60.57
2023-04-07T03:48:37.495Z,60.33
2023-04-07T03:51:07.397Z,55.53
2023-04-07T03:53:34.576Z,53.57
2023-04-07T03:56:10.162Z,50.73
2023-04-07T03:58:42.847Z,55.47
2023-04-07T04:01:13.530Z,55.10
2023-04-07T04:03:42.911Z,57.67
2023-04-07T04:06:35.691Z,54.53
2023-04-07T04:09:14.342Z,58.80
2023-04-07T04:11:44.918Z,48.47
2023-04-07T04:14:11.365Z,57.43
2023-04-07T04:16:37.878Z,56.70
2023-04-07T04:19:11.354Z,54.93
2023-04-07T04:21:37.747Z,59.67
2023-04-07T04:24:04.613Z,47.47
2023-04-07T04:26:31.164Z,37.90
2023-04-07T04:29:03.695Z,48.37
2023-04-07T04:31:30.386Z,42.67
2023-04-07T04:33:57.154Z,44.27
2023-04-07T04:36:24.525Z,43.40
2023-04-07T04:38:55.290Z,40.07
2023-04-07T04:41:21.843Z,40.07
2023-04-07T04:43:50.239Z,42.33
2023-04-07T04:46:21.480Z,38.60
2023-04-07T04:48:49.094Z,38.53
2023-04-07T04:51:17.309Z,40.10
2023-04-07T04:53:47.634Z,40.63
2023-04-07T04:56:14.106Z,42.93
2023-04-07T04:58:46.532Z,47.67
2023-04-07T05:01:21.389Z,44.50
2023-04-07T05:03:54.424Z,42.80
2023-04-07T05:06:24.426Z,51.30
2023-04-07T05:08:52.281Z,54.13
2023-04-07T05:11:22.691Z,53.67
2023-04-07T05:13:52.295Z,51.47
2023-04-07T05:16:18.877Z,54.97
2023-04-07T05:18:45.406Z,49.07
2023-04-07T05:21:11.823Z,48.37
2023-04-07T05:23:38.265Z,37.00
2023-04-07T05:26:06.149Z,35.30
2023-04-07T05:28:32.970Z,34.57
2023-04-07T05:31:05.707Z,28.53
2023-04-07T05:33:34.531Z,29.07
2023-04-07T05:36:02.552Z,28.03
2023-04-07T05:38:30.389Z,26.47
2023-04-07T05:41:00.349Z,27.37
2023-04-07T05:43:31.817Z,25.53
2023-04-07T05:45:58.254Z,25.90
2023-04-07T05:48:24.963Z,21.57
2023-04-07T05:50:52.818Z,24.77
2023-04-07T05:53:19.961Z,23.33
2023-04-07T05:55:46.640Z,18.97
2023-04-07T05:58:22.126Z,25.43
2023-04-07T06:00:51.339Z,26.20
2023-04-07T06:03:18.793Z,21.73
2023-04-07T06:05:58.392Z,18.80
2023-04-07T06:08:25.295Z,30.97
2023-04-07T06:10:51.649Z,22.63
2023-04-07T06:13:17.970Z,17.10
2023-04-07T06:15:44.374Z,21.13
2023-04-07T06:18:10.804Z,21.13
2023-04-07T06:20:37.229Z,16.40
2023-04-07T06:23:03.595Z,15.20
2023-04-07T06:25:30.297Z,18.30
2023-04-07T06:27:56.715Z,20.33
2023-04-07T06:30:23.319Z,25.67
2023-04-07T06:32:50.562Z,17.53
2023-04-07T06:35:17.731Z,14.57
2023-04-07T06:37:44.098Z,20.07
2023-04-07T06:40:10.479Z,18.33
2023-04-07T06:42:36.820Z,17.60
2023-04-07T06:45:14.733Z,25.47
2023-04-07T06:47:41.129Z,13.53
2023-04-07T06:50:08.000Z,17.33
2023-04-07T06:52:34.326Z,16.57
2023-04-07T06:55:00.740Z,13.27
2023-04-07T06:57:27.467Z,15.60
2023-04-07T06:59:53.777Z,21.03
2023-04-07T07:02:20.573Z,13.00
2023-04-07T07:04:47.108Z,14.20
2023-04-07T07:07:13.452Z,12.40
2023-04-07T07:09:39.778Z,22.37
2023-04-07T07:12:06.351Z,14.13
2023-04-07T07:14:32.735Z,20.90
2023-04-07T07:16:59.051Z,13.43
2023-04-07T07:19:25.485Z,13.57
2023-04-07T07:21:51.970Z,19.90
2023-04-07T07:24:18.290Z,17.33
2023-04-07T07:26:45.829Z,12.97
2023-04-07T07:29:12.147Z,13.53
2023-04-07T07:31:38.509Z,11.53
2023-04-07T07:34:05.190Z,10.23
2023-04-07T07:36:32.176Z,11.77
2023-04-07T07:38:58.536Z,20.30
2023-04-07T07:41:26.176Z,11.77
2023-04-07T07:43:52.849Z,17.60
2023-04-07T07:46:19.209Z,13.40
2023-04-07T07:48:46.515Z,14.57
2023-04-07T07:51:13.625Z,11.47
2023-04-07T07:53:40.025Z,11.97
2023-04-07T07:56:06.517Z,11.97
2023-04-07T07:58:32.957Z,8.40
2023-04-07T08:00:59.301Z,8.23
2023-04-07T08:03:26.087Z,8.10
2023-04-07T08:05:52.561Z,13.13
2023-04-07T08:08:18.934Z,8.70
2023-04-07T08:10:45.303Z,13.23
2023-04-07T08:13:11.736Z,10.23
2023-04-07T08:15:39.411Z,18.97
2023-04-07T08:18:07.029Z,9.53
2023-04-07T08:20:34.072Z,19.27
2023-04-07T08:23:02.032Z,16.33
2023-04-07T08:25:28.988Z,14.00
2023-04-07T08:27:55.490Z,12.30
2023-04-07T08:30:22.343Z,8.47
2023-04-07T08:32:49.190Z,12.57
2023-04-07T08:35:15.599Z,8.10
2023-04-07T08:37:44.058Z,9.30
2023-04-07T08:40:11.111Z,11.90
2023-04-07T08:42:42.905Z,9.23
2023-04-07T08:45:10.099Z,18.27
2023-04-07T08:47:37.910Z,11.37
2023-04-07T08:50:09.398Z,9.83
2023-04-07T08:52:48.741Z,8.30
2023-04-07T08:55:15.321Z,8.93
2023-04-07T08:57:42.421Z,9.80
2023-04-07T09:00:09.862Z,11.57
2023-04-07T09:02:43.430Z,12.87
2023-04-07T09:05:10.289Z,10.03
2023-04-07T09:07:38.305Z,14.33
2023-04-07T09:10:05.732Z,8.07
2023-04-07T09:12:33.066Z,9.20
2023-04-07T09:14:59.944Z,11.90
2023-04-07T09:17:27.277Z,8.70
2023-04-07T09:19:57.360Z,11.13
2023-04-07T09:22:42.150Z,12.97
2023-04-07T09:25:26.309Z,12.13
2023-04-07T09:28:01.235Z,9.90
2023-04-07T09:30:28.720Z,8.67
2023-04-07T09:32:55.818Z,10.20
2023-04-07T09:35:23.784Z,17.87
2023-04-07T09:38:07.688Z,14.47
2023-04-07T09:40:35.151Z,9.50
2023-04-07T09:43:03.636Z,16.33
2023-04-07T09:45:36.582Z,8.93
2023-04-07T09:48:32.096Z,11.10
2023-04-07T09:51:06.589Z,7.07
2023-04-07T09:53:50.289Z,6.50
2023-04-07T09:56:18.725Z,7.60
2023-04-07T09:58:47.052Z,7.03
2023-04-07T10:01:16.477Z,9.90
2023-04-07T10:03:43.342Z,6.47
2023-04-07T10:06:10.348Z,5.83
2023-04-07T10:08:39.275Z,6.47
2023-04-07T10:11:06.593Z,7.13
2023-04-07T10:13:35.886Z,6.23
2023-04-07T10:16:07.036Z,6.53
2023-04-07T10:18:35.202Z,7.47
2023-04-07T10:21:03.575Z,9.60
2023-04-07T10:23:43.612Z,8.17
2023-04-07T10:26:10.963Z,6.47
2023-04-07T10:28:41.308Z,6.87
2023-04-07T10:31:08.149Z,7.30
2023-04-07T10:33:53.982Z,6.93
2023-04-07T10:36:21.447Z,6.00
2023-04-07T10:39:06.493Z,6.07
2023-04-07T10:41:36.826Z,6.33
2023-04-07T10:44:04.793Z,5.63
2023-04-07T10:46:49.400Z,6.13
2023-04-07T10:49:18.550Z,7.60
2023-04-07T10:52:14.733Z,5.50
2023-04-07T10:54:41.397Z,6.40
2023-04-07T10:57:14.361Z,5.63
2023-04-07T11:00:11.864Z,5.73
2023-04-07T11:02:39.810Z,7.20
2023-04-07T11:05:06.668Z,5.50
2023-04-07T11:07:49.991Z,6.00
2023-04-07T11:10:18.916Z,6.73
2023-04-07T11:12:58.487Z,5.17
2023-04-07T11:15:24.891Z,4.50
2023-04-07T11:18:10.900Z,4.63
2023-04-07T11:20:46.657Z,4.13
2023-04-07T11:23:14.533Z,5.80
2023-04-07T11:25:45.668Z,6.70
2023-04-07T11:28:13.589Z,5.73
2023-04-07T11:30:46.207Z,5.57
2023-04-07T11:33:17.561Z,6.23
2023-04-07T11:35:52.060Z,6.23
2023-04-07T11:38:18.813Z,6.03
2023-04-07T11:40:45.272Z,5.70
2023-04-07T11:43:25.873Z,7.07
2023-04-07T11:46:06.357Z,6.00
2023-04-07T11:48:34.708Z,5.40
2023-04-07T11:51:02.056Z,5.47
2023-04-07T11:53:34.229Z,5.67
2023-04-07T11:56:04.407Z,5.97
2023-04-07T11:58:30.950Z,7.47
2023-04-07T12:00:59.160Z,8.30
2023-04-07T12:03:25.603Z,10.60
2023-04-07T12:05:52.197Z,8.83
2023-04-07T12:08:19.574Z,10.70
2023-04-07T12:10:45.896Z,9.60
2023-04-07T12:13:13.496Z,10.10
2023-04-07T12:15:40.051Z,10.50
2023-04-07T12:18:06.778Z,10.50
2023-04-07T12:20:33.098Z,11.17
2023-04-07T12:23:00.142Z,10.83
2023-04-07T12:25:27.410Z,10.83
2023-04-07T12:27:53.765Z,11.23
2023-04-07T12:30:20.084Z,11.63
2023-04-07T12:32:46.681Z,11.73
2023-04-07T12:35:13.139Z,10.87
2023-04-07T12:37:39.500Z,11.50
2023-04-07T12:40:06.609Z,10.87
2023-04-07T12:42:32.942Z,11.13
2023-04-07T12:44:59.334Z,10.50
2023-04-07T12:47:25.909Z,10.80
2023-04-07T12:49:52.273Z,10.97
2023-04-07T12:52:18.703Z,9.20
2023-04-07T12:54:45.257Z,10.37
2023-04-07T12:57:11.693Z,10.07
2023-04-07T12:59:38.012Z,9.40
2023-04-07T13:02:04.547Z,8.30
2023-04-07T13:04:31.383Z,7.70
2023-04-07T13:06:57.865Z,7.17
2023-04-07T13:09:25.397Z,7.80
2023-04-07T13:11:51.763Z,7.00
2023-04-07T13:14:18.099Z,7.60
2023-04-07T13:16:44.688Z,7.10
2023-04-07T13:19:11.116Z,7.30
2023-04-07T13:24:06.884Z,7.83
2023-04-07T13:26:33.211Z,7.10
2023-04-07T13:28:59.554Z,7.37
2023-04-07T13:31:25.900Z,6.80
2023-04-07T13:33:52.243Z,6.93
2023-04-07T13:36:20.549Z,6.53
2023-04-07T13:38:48.155Z,6.13
2023-04-07T13:41:14.454Z,5.40
2023-04-07T13:43:40.897Z,6.00
2023-04-07T13:46:17.125Z,6.50
2023-04-07T13:48:51.713Z,5.63
2023-04-07T13:51:18.686Z,5.80
2023-04-07T13:53:45.700Z,5.57
2023-04-07T13:56:12.225Z,5.60
2023-04-07T13:58:38.597Z,5.97
2023-04-07T14:01:05.091Z,5.23
2023-04-07T14:03:31.731Z,5.60
2023-04-07T14:06:01.233Z,5.17
2023-04-07T14:08:27.815Z,5.90
2023-04-07T14:10:54.199Z,5.20
2023-04-07T14:13:20.607Z,5.37
2023-04-07T14:15:48.283Z,5.83
2023-04-07T14:18:14.693Z,5.07
2023-04-07T14:20:41.006Z,5.57
2023-04-07T14:23:07.334Z,5.83
2023-04-07T14:25:33.688Z,6.17
2023-04-07T14:28:00.016Z,5.80
2023-04-07T14:30:26.448Z,5.90
2023-04-07T14:32:53.427Z,6.13
2023-04-07T14:35:20.159Z,6.60
2023-04-07T14:37:46.481Z,6.40
2023-04-07T14:40:12.914Z,6.20
2023-04-07T14:42:39.915Z,6.50
2023-04-07T14:45:06.784Z,6.50
2023-04-07T14:47:33.217Z,6.27
2023-04-07T14:49:59.717Z,6.30
2023-04-07T14:52:26.189Z,5.63
2023-04-07T14:54:52.528Z,5.73
2023-04-07T14:57:19.541Z,6.63
2023-04-07T14:59:47.029Z,6.50
2023-04-07T15:02:13.472Z,6.43
2023-04-07T15:04:40.013Z,6.70
2023-04-07T15:07:06.382Z,6.50
2023-04-07T15:09:32.780Z,6.60
2023-04-07T15:12:00.325Z,7.37
2023-04-07T15:14:26.762Z,7.20
2023-04-07T15:16:53.191Z,6.97
2023-04-07T15:19:19.531Z,7.40
2023-04-07T15:21:45.911Z,8.13
2023-04-07T15:24:13.330Z,6.93
2023-04-07T15:26:41.226Z,7.80
2023-04-07T15:29:07.541Z,8.90
2023-04-07T15:31:33.954Z,9.90
2023-04-07T15:34:00.354Z,9.97
2023-04-07T15:36:27.234Z,9.43
2023-04-07T15:38:53.555Z,9.23
2023-04-07T15:41:19.864Z,10.87
2023-04-07T15:43:46.555Z,10.27
2023-04-07T15:46:13.076Z,10.00
2023-04-07T15:48:39.431Z,8.77
2023-04-07T15:51:05.859Z,9.53
2023-04-07T15:53:32.240Z,9.80
2023-04-07T15:55:58.625Z,10.23
2023-04-07T15:58:25.041Z,9.37
2023-04-07T16:00:51.513Z,11.27
2023-04-07T16:03:18.144Z,10.33
2023-04-07T16:05:44.606Z,8.93
2023-04-07T16:08:13.234Z,9.03
2023-04-07T16:10:40.151Z,8.33
2023-04-07T16:13:06.485Z,9.33
2023-04-07T16:15:40.200Z,10.00
2023-04-07T16:18:11.977Z,10.47
2023-04-07T16:20:38.360Z,8.87
2023-04-07T16:23:04.805Z,8.80
2023-04-07T16:25:31.375Z,8.97
2023-04-07T16:27:57.986Z,8.80
2023-04-07T16:30:25.091Z,7.80
2023-04-07T16:32:51.541Z,8.10
2023-04-07T16:35:17.853Z,8.23
2023-04-07T16:37:46.465Z,8.37
2023-04-07T16:40:13.351Z,7.93
2023-04-07T16:42:39.790Z,7.63
2023-04-07T16:45:06.816Z,9.40
2023-04-07T16:47:33.296Z,8.70
2023-04-07T16:49:59.754Z,9.67
2023-04-07T16:52:26.452Z,9.10
2023-04-07T16:54:52.844Z,7.40
2023-04-07T16:57:19.165Z,8.63
2023-04-07T16:59:46.244Z,8.40
2023-04-07T17:02:16.179Z,7.53
2023-04-07T17:04:43.602Z,8.10
2023-04-07T17:07:10.411Z,7.80
2023-04-07T17:09:36.788Z,8.53
2023-04-07T17:12:03.700Z,9.70
2023-04-07T17:14:30.304Z,8.90
2023-04-07T17:16:56.856Z,8.50
2023-04-07T17:19:23.519Z,8.53
2023-04-07T17:21:49.875Z,8.93
2023-04-07T17:24:16.712Z,9.07
2023-04-07T17:26:44.365Z,9.57
2023-04-07T17:29:10.676Z,9.87
2023-04-07T17:31:37.123Z,9.53
2023-04-07T17:34:03.719Z,9.03
2023-04-07T17:36:33.954Z,9.47
2023-04-07T17:39:01.219Z,8.37
2023-04-07T17:41:28.351Z,9.03
2023-04-07T17:43:54.798Z,9.20
2023-04-07T17:46:22.640Z,9.53
2023-04-07T17:48:50.608Z,9.10
2023-04-07T17:51:17.576Z,9.07
2023-04-07T17:53:44.024Z,8.57
2023-04-07T17:56:10.399Z,10.07
2023-04-07T17:58:36.765Z,9.23
2023-04-07T18:01:03.181Z,9.03
2023-04-07T18:03:29.919Z,10.27
2023-04-07T18:05:56.411Z,11.33
2023-04-07T18:08:23.994Z,11.33
2023-04-07T18:10:51.519Z,12.23
2023-04-07T18:13:18.491Z,11.07
2023-04-07T18:15:45.089Z,10.47
2023-04-07T18:18:11.438Z,10.60
2023-04-07T18:20:37.888Z,12.57
2023-04-07T18:23:05.213Z,13.03
2023-04-07T18:25:31.532Z,12.50
2023-04-07T18:27:58.599Z,10.70
2023-04-07T18:30:24.912Z,11.27
2023-04-07T18:32:51.312Z,11.00
2023-04-07T18:35:17.677Z,11.00
2023-04-07T18:37:44.424Z,10.87
2023-04-07T18:40:11.402Z,11.90
2023-04-07T18:42:37.770Z,10.87
2023-04-07T18:45:04.384Z,11.67
2023-04-07T18:47:30.866Z,10.33
2023-04-07T18:49:58.050Z,10.83
2023-04-07T18:52:25.637Z,11.37
2023-04-07T18:54:51.994Z,10.43
2023-04-07T18:57:18.404Z,12.33
2023-04-07T18:59:44.784Z,11.47
2023-04-07T19:02:11.421Z,12.57
2023-04-07T19:04:37.858Z,12.23
2023-04-07T19:07:04.236Z,13.20
2023-04-07T19:09:30.626Z,11.80
2023-04-07T19:11:57.872Z,12.00
2023-04-07T19:14:24.268Z,11.77
2023-04-07T19:16:51.842Z,12.57
2023-04-07T19:19:18.362Z,11.30
2023-04-07T19:21:44.745Z,13.43
2023-04-07T19:24:11.210Z,10.63
2023-04-07T19:26:37.820Z,11.93
2023-04-07T19:29:04.332Z,13.00
2023-04-07T19:31:31.205Z,14.50
2023-04-07T19:33:58.392Z,12.63
2023-04-07T19:36:25.846Z,13.37
2023-04-07T19:38:52.240Z,12.90
2023-04-07T19:41:18.580Z,14.60
2023-04-07T19:43:45.248Z,13.87
2023-04-07T19:46:11.815Z,13.83
2023-04-07T19:48:38.230Z,13.27
2023-04-07T19:51:07.099Z,13.03
2023-04-07T19:53:33.784Z,14.13
2023-04-07T19:56:01.919Z,14.13
2023-04-07T19:58:28.243Z,15.43
2023-04-07T20:00:55.022Z,15.77
2023-04-07T20:03:22.002Z,14.20
2023-04-07T20:05:48.555Z,13.63
2023-04-07T20:08:14.934Z,17.23
2023-04-07T20:10:41.345Z,12.93
2023-04-07T20:13:09.002Z,14.30
2023-04-07T20:15:35.337Z,13.87
2023-04-07T20:18:01.713Z,14.70
2023-04-07T20:20:28.100Z,15.20
2023-04-07T20:22:54.444Z,16.40
2023-04-07T20:25:20.954Z,17.17
2023-04-07T20:27:49.797Z,15.73
2023-04-07T20:30:16.327Z,16.73
2023-04-07T20:32:43.482Z,15.13
2023-04-07T20:35:11.620Z,15.37
2023-04-07T20:37:37.977Z,17.30
2023-04-07T20:40:04.837Z,17.07
2023-04-07T20:42:31.303Z,17.70
2023-04-07T20:45:03.302Z,19.80
2023-04-07T20:47:31.095Z,18.47
2023-04-07T20:49:58.583Z,18.00
2023-04-07T20:52:26.573Z,17.50
2023-04-07T20:54:53.111Z,17.33
2023-04-07T20:57:19.475Z,18.27
2023-04-07T20:59:45.977Z,17.73
2023-04-07T21:02:12.426Z,18.60
2023-04-07T21:04:38.887Z,16.57
2023-04-07T21:07:05.246Z,14.73
2023-04-07T21:09:31.618Z,13.37
2023-04-07T21:11:58.017Z,16.23
2023-04-07T21:14:24.335Z,17.10
2023-04-07T21:16:52.037Z,15.10
2023-04-07T21:19:18.336Z,16.10
2023-04-07T21:21:44.711Z,12.50
2023-04-07T21:24:11.033Z,14.23
2023-04-07T21:26:37.341Z,18.83
2023-04-07T21:29:03.694Z,11.87
2023-04-07T21:31:30.105Z,14.07
2023-04-07T21:33:56.465Z,14.30
2023-04-07T21:36:22.789Z,13.17
2023-04-07T21:38:51.838Z,12.80
2023-04-07T21:41:18.387Z,12.37
2023-04-07T21:43:44.956Z,71.73
2023-04-07T21:46:11.466Z,12.03
2023-04-07T21:48:37.837Z,14.40
2023-04-07T21:51:04.264Z,14.83
2023-04-07T21:53:30.595Z,12.37
2023-04-07T21:55:57.497Z,13.20
2023-04-07T21:58:23.916Z,13.63
2023-04-07T22:00:50.324Z,12.20
2023-04-07T22:03:16.976Z,15.37
2023-04-07T22:05:43.444Z,19.23
2023-04-07T22:08:09.753Z,17.13
2023-04-07T22:10:36.333Z,15.43
2023-04-07T22:13:02.766Z,21.07
2023-04-07T22:15:29.251Z,14.23
2023-04-07T22:17:56.388Z,11.67
2023-04-07T22:20:23.253Z,11.23
2023-04-07T22:22:49.608Z,11.13
2023-04-07T22:25:16.186Z,12.27
2023-04-07T22:27:42.521Z,12.10
2023-04-07T22:30:10.705Z,63.67
2023-04-07T22:32:37.203Z,19.50
2023-04-07T22:35:03.820Z,13.83
2023-04-07T22:37:30.260Z,18.97
2023-04-07T22:39:56.588Z,15.83
2023-04-07T22:42:22.929Z,15.07
2023-04-07T22:44:49.249Z,13.37
2023-04-07T22:47:15.875Z,30.20
2023-04-07T22:49:42.330Z,13.57
2023-04-07T22:52:08.690Z,12.37
2023-04-07T22:54:35.357Z,14.27
2023-04-07T22:57:02.309Z,10.73
2023-04-07T22:59:28.625Z,9.93
2023-04-07T23:01:57.185Z,10.37
2023-04-07T23:04:24.623Z,11.27
2023-04-07T23:06:50.993Z,133.67
2023-04-07T23:09:17.319Z,11.40
2023-04-07T23:11:45.984Z,42.33
2023-04-07T23:14:12.875Z,51.10
2023-04-07T23:16:39.285Z,24.97
2023-04-07T23:19:11.178Z,55.33
2023-04-07T23:21:38.787Z,26.27
2023-04-07T23:24:05.409Z,16.50
2023-04-07T23:26:31.887Z,15.70
2023-04-07T23:28:58.212Z,31.07
2023-04-07T23:31:24.643Z,24.57
2023-04-07T23:33:51.015Z,18.53
2023-04-07T23:36:17.467Z,82.80
2023-04-07T23:38:43.922Z,17.23
2023-04-07T23:41:10.285Z,16.70
2023-04-07T23:43:36.655Z,12.60
2023-04-07T23:46:03.166Z,13.57
2023-04-07T23:48:30.963Z,13.00
2023-04-07T23:50:59.594Z,13.93
2023-04-07T23:53:25.998Z,10.90
2023-04-07T23:55:52.315Z,11.60
2023-04-07T23:58:18.673Z,14.93
